sensor_id;sensor_type;location;lat;lon;timestamp;P1;durP1;ratioP1;P2;durP2;ratioP2
19087;SDS011;9676;50.916;13.352;2023-04-24T00:01:43;10.60;;;9.70;;
19087;SDS011;9676;50.916;13.352;2023-04-24T00:04:33;11.43;;;10.23;;
19087;SDS011;9676;50.916;13.352;2023-04-24T00:07:22;11.10;;;10.00;;
19087;SDS011;9676;50.916;13.352;2023-04-24T00:10:12;10.60;;;9.70;;
19087;SDS011;9676;50.916;13.352;2023-04-24T00:13:02;10.50;;;9.60;;
19087;SDS011;9676;50.916;13.352;2023-04-24T00:15:52;11.00;;;10.00;;
19087;SDS011;9676;50.916;13.352;2023-04-24T00:18:42;10.83;;;9.83;;
19087;SDS011;9676;50.916;13.352;2023-04-24T00:21:32;10.80;;;9.80;;
19087;SDS011;9676;50.916;13.352;2023-04-24T00:24:21;10.67;;;9.77;;
19087;SDS011;9676;50.916;13.352;2023-04-24T00:27:10;10.90;;;9.90;;
19087;SDS011;9676;50.916;13.352;2023-04-24T00:30:01;10.40;;;9.50;;
19087;SDS011;9676;50.916;13.352;2023-04-24T00:32:52;10.70;;;9.80;;
19087;SDS011;9676;50.916;13.352;2023-04-24T00:35:43;10.57;;;9.67;;
19087;SDS011;9676;50.916;13.352;2023-04-24T00:38:32;10.80;;;9.80;;
19087;SDS011;9676;50.916;13.352;2023-04-24T00:41:23;10.60;;;9.60;;
19087;SDS011;9676;50.916;13.352;2023-04-24T00:44:13;10.77;;;9.87;;
19087;SDS011;9676;50.916;13.352;2023-04-24T00:47:04;10.63;;;9.70;;
19087;SDS011;9676;50.916;13.352;2023-04-24T00:49:54;10.37;;;9.47;;
19087;SDS011;9676;50.916;13.352;2023-04-24T00:52:43;9.97;;;9.17;;
19087;SDS011;9676;50.916;13.352;2023-04-24T00:55:33;9.80;;;9.00;;
19087;SDS011;9676;50.916;13.352;2023-04-24T00:58:24;10.90;;;9.80;;
19087;SDS011;9676;50.916;13.352;2023-04-24T01:01:14;10.87;;;9.90;;
19087;SDS011;9676;50.916;13.352;2023-04-24T01:04:05;10.50;;;9.50;;
19087;SDS011;9676;50.916;13.352;2023-04-24T01:06:55;10.70;;;9.70;;
19087;SDS011;9676;50.916;13.352;2023-04-24T01:09:45;10.00;;;9.20;;
19087;SDS011;9676;50.916;13.352;2023-04-24T01:12:38;10.20;;;9.30;;
19087;SDS011;9676;50.916;13.352;2023-04-24T01:15:28;10.07;;;9.17;;
19087;SDS011;9676;50.916;13.352;2023-04-24T01:18:17;10.10;;;9.20;;
19087;SDS011;9676;50.916;13.352;2023-04-24T01:21:11;10.10;;;9.20;;
19087;SDS011;9676;50.916;13.352;2023-04-24T01:24:05;9.33;;;8.63;;
19087;SDS011;9676;50.916;13.352;2023-04-24T01:26:55;9.77;;;8.97;;
19087;SDS011;9676;50.916;13.352;2023-04-24T01:29:44;9.50;;;8.80;;
19087;SDS011;9676;50.916;13.352;2023-04-24T01:32:35;9.67;;;8.90;;
19087;SDS011;9676;50.916;13.352;2023-04-24T01:35:25;10.00;;;9.20;;
19087;SDS011;9676;50.916;13.352;2023-04-24T01:38:15;9.50;;;8.80;;
19087;SDS011;9676;50.916;13.352;2023-04-24T01:41:05;9.93;;;9.10;;
19087;SDS011;9676;50.916;13.352;2023-04-24T01:43:55;9.60;;;8.80;;
19087;SDS011;9676;50.916;13.352;2023-04-24T01:46:46;9.80;;;9.00;;
19087;SDS011;9676;50.916;13.352;2023-04-24T01:49:36;11.03;;;8.80;;
19087;SDS011;9676;50.916;13.352;2023-04-24T01:52:27;9.97;;;9.10;;
19087;SDS011;9676;50.916;13.352;2023-04-24T01:55:18;9.40;;;8.70;;
19087;SDS011;9676;50.916;13.352;2023-04-24T01:58:09;9.40;;;8.70;;
19087;SDS011;9676;50.916;13.352;2023-04-24T02:00:58;9.50;;;8.80;;
19087;SDS011;9676;50.916;13.352;2023-04-24T02:03:48;9.70;;;9.00;;
19087;SDS011;9676;50.916;13.352;2023-04-24T02:06:38;9.70;;;8.90;;
19087;SDS011;9676;50.916;13.352;2023-04-24T02:09:27;11.70;;;9.00;;
19087;SDS011;9676;50.916;13.352;2023-04-24T02:12:17;9.33;;;8.67;;
19087;SDS011;9676;50.916;13.352;2023-04-24T02:15:08;9.40;;;8.70;;
19087;SDS011;9676;50.916;13.352;2023-04-24T02:17:58;9.57;;;8.77;;
19087;SDS011;9676;50.916;13.352;2023-04-24T02:20:48;9.53;;;8.83;;
19087;SDS011;9676;50.916;13.352;2023-04-24T02:23:38;9.10;;;8.50;;
19087;SDS011;9676;50.916;13.352;2023-04-24T02:26:27;9.30;;;8.60;;
19087;SDS011;9676;50.916;13.352;2023-04-24T02:29:19;9.40;;;8.70;;
19087;SDS011;9676;50.916;13.352;2023-04-24T02:32:11;9.17;;;8.57;;
19087;SDS011;9676;50.916;13.352;2023-04-24T02:35:03;9.60;;;8.80;;
19087;SDS011;9676;50.916;13.352;2023-04-24T02:37:53;9.27;;;8.57;;
19087;SDS011;9676;50.916;13.352;2023-04-24T02:40:43;9.40;;;8.70;;
19087;SDS011;9676;50.916;13.352;2023-04-24T02:43:32;9.40;;;8.67;;
19087;SDS011;9676;50.916;13.352;2023-04-24T02:46:22;9.30;;;8.60;;
19087;SDS011;9676;50.916;13.352;2023-04-24T02:49:12;9.20;;;8.60;;
19087;SDS011;9676;50.916;13.352;2023-04-24T02:52:02;9.20;;;8.50;;
19087;SDS011;9676;50.916;13.352;2023-04-24T02:54:52;9.30;;;8.60;;
19087;SDS011;9676;50.916;13.352;2023-04-24T02:57:42;9.23;;;8.53;;
19087;SDS011;9676;50.916;13.352;2023-04-24T03:00:31;9.00;;;8.40;;
19087;SDS011;9676;50.916;13.352;2023-04-24T03:03:21;9.20;;;8.50;;
19087;SDS011;9676;50.916;13.352;2023-04-24T03:06:12;9.00;;;8.40;;
19087;SDS011;9676;50.916;13.352;2023-04-24T03:09:02;9.67;;;8.97;;
19087;SDS011;9676;50.916;13.352;2023-04-24T03:11:52;9.10;;;8.50;;
19087;SDS011;9676;50.916;13.352;2023-04-24T03:14:44;9.73;;;8.73;;
19087;SDS011;9676;50.916;13.352;2023-04-24T03:17:34;9.10;;;8.50;;
19087;SDS011;9676;50.916;13.352;2023-04-24T03:20:24;9.10;;;8.50;;
19087;SDS011;9676;50.916;13.352;2023-04-24T03:23:17;9.30;;;8.60;;
19087;SDS011;9676;50.916;13.352;2023-04-24T03:26:07;9.00;;;8.40;;
19087;SDS011;9676;50.916;13.352;2023-04-24T03:29:02;9.40;;;8.70;;
19087;SDS011;9676;50.916;13.352;2023-04-24T03:31:52;9.10;;;8.50;;
19087;SDS011;9676;50.916;13.352;2023-04-24T03:34:41;9.10;;;8.50;;
19087;SDS011;9676;50.916;13.352;2023-04-24T03:37:34;9.50;;;8.80;;
19087;SDS011;9676;50.916;13.352;2023-04-24T03:40:45;9.40;;;8.73;;
19087;SDS011;9676;50.916;13.352;2023-04-24T03:43:48;9.20;;;8.60;;
19087;SDS011;9676;50.916;13.352;2023-04-24T03:46:37;9.43;;;8.73;;
19087;SDS011;9676;50.916;13.352;2023-04-24T03:49:27;9.20;;;8.50;;
19087;SDS011;9676;50.916;13.352;2023-04-24T03:52:16;9.50;;;8.80;;
19087;SDS011;9676;50.916;13.352;2023-04-24T03:55:07;9.40;;;8.70;;
19087;SDS011;9676;50.916;13.352;2023-04-24T03:58:06;9.50;;;8.70;;
19087;SDS011;9676;50.916;13.352;2023-04-24T04:00:55;9.33;;;8.63;;
19087;SDS011;9676;50.916;13.352;2023-04-24T04:04:14;9.13;;;8.53;;
19087;SDS011;9676;50.916;13.352;2023-04-24T04:07:05;9.00;;;8.40;;
19087;SDS011;9676;50.916;13.352;2023-04-24T04:09:55;9.37;;;8.67;;
19087;SDS011;9676;50.916;13.352;2023-04-24T04:12:44;9.40;;;8.70;;
19087;SDS011;9676;50.916;13.352;2023-04-24T04:15:35;9.60;;;8.70;;
19087;SDS011;9676;50.916;13.352;2023-04-24T04:18:25;9.20;;;8.60;;
19087;SDS011;9676;50.916;13.352;2023-04-24T04:21:15;9.20;;;8.60;;
19087;SDS011;9676;50.916;13.352;2023-04-24T04:24:05;9.40;;;8.60;;
19087;SDS011;9676;50.916;13.352;2023-04-24T04:26:58;9.10;;;8.50;;
19087;SDS011;9676;50.916;13.352;2023-04-24T04:29:52;9.20;;;8.50;;
19087;SDS011;9676;50.916;13.352;2023-04-24T04:32:45;9.57;;;8.77;;
19087;SDS011;9676;50.916;13.352;2023-04-24T04:35:35;9.67;;;8.87;;
19087;SDS011;9676;50.916;13.352;2023-04-24T04:38:25;9.43;;;8.73;;
19087;SDS011;9676;50.916;13.352;2023-04-24T04:41:24;9.23;;;8.63;;
19087;SDS011;9676;50.916;13.352;2023-04-24T04:44:13;9.40;;;8.80;;
19087;SDS011;9676;50.916;13.352;2023-04-24T04:47:03;9.20;;;8.60;;
19087;SDS011;9676;50.916;13.352;2023-04-24T04:49:57;9.30;;;8.60;;
19087;SDS011;9676;50.916;13.352;2023-04-24T04:52:48;9.90;;;9.10;;
19087;SDS011;9676;50.916;13.352;2023-04-24T04:55:43;9.40;;;8.60;;
19087;SDS011;9676;50.916;13.352;2023-04-24T04:58:35;9.23;;;8.63;;
19087;SDS011;9676;50.916;13.352;2023-04-24T05:01:27;9.70;;;8.80;;
19087;SDS011;9676;50.916;13.352;2023-04-24T05:04:17;9.43;;;8.63;;
19087;SDS011;9676;50.916;13.352;2023-04-24T05:07:08;9.30;;;8.60;;
19087;SDS011;9676;50.916;13.352;2023-04-24T05:10:00;9.40;;;8.70;;
19087;SDS011;9676;50.916;13.352;2023-04-24T05:12:50;9.43;;;8.73;;
19087;SDS011;9676;50.916;13.352;2023-04-24T05:15:40;9.40;;;8.70;;
19087;SDS011;9676;50.916;13.352;2023-04-24T05:18:29;8.90;;;8.30;;
19087;SDS011;9676;50.916;13.352;2023-04-24T05:21:19;9.27;;;8.60;;
19087;SDS011;9676;50.916;13.352;2023-04-24T05:24:12;9.40;;;8.70;;
19087;SDS011;9676;50.916;13.352;2023-04-24T05:27:22;9.30;;;8.60;;
19087;SDS011;9676;50.916;13.352;2023-04-24T05:30:11;9.20;;;8.60;;
19087;SDS011;9676;50.916;13.352;2023-04-24T05:33:01;9.20;;;8.50;;
19087;SDS011;9676;50.916;13.352;2023-04-24T05:35:54;9.67;;;8.80;;
19087;SDS011;9676;50.916;13.352;2023-04-24T05:38:43;9.43;;;8.73;;
19087;SDS011;9676;50.916;13.352;2023-04-24T05:41:34;9.20;;;8.50;;
19087;SDS011;9676;50.916;13.352;2023-04-24T05:44:23;9.27;;;8.47;;
19087;SDS011;9676;50.916;13.352;2023-04-24T05:47:13;9.30;;;8.60;;
19087;SDS011;9676;50.916;13.352;2023-04-24T05:50:03;9.40;;;8.60;;
19087;SDS011;9676;50.916;13.352;2023-04-24T05:52:54;9.17;;;8.50;;
19087;SDS011;9676;50.916;13.352;2023-04-24T05:55:49;9.40;;;8.70;;
19087;SDS011;9676;50.916;13.352;2023-04-24T05:58:40;9.20;;;8.50;;
19087;SDS011;9676;50.916;13.352;2023-04-24T06:01:30;9.33;;;8.50;;
19087;SDS011;9676;50.916;13.352;2023-04-24T06:04:28;9.03;;;8.43;;
19087;SDS011;9676;50.916;13.352;2023-04-24T06:07:18;9.23;;;8.53;;
19087;SDS011;9676;50.916;13.352;2023-04-24T06:10:09;9.07;;;8.47;;
19087;SDS011;9676;50.916;13.352;2023-04-24T06:13:04;9.50;;;8.70;;
19087;SDS011;9676;50.916;13.352;2023-04-24T06:15:57;9.10;;;8.40;;
19087;SDS011;9676;50.916;13.352;2023-04-24T06:18:54;9.20;;;8.40;;
19087;SDS011;9676;50.916;13.352;2023-04-24T06:21:44;9.07;;;8.40;;
19087;SDS011;9676;50.916;13.352;2023-04-24T06:24:34;9.43;;;8.70;;
19087;SDS011;9676;50.916;13.352;2023-04-24T06:27:23;9.07;;;8.40;;
19087;SDS011;9676;50.916;13.352;2023-04-24T06:30:12;9.63;;;8.70;;
19087;SDS011;9676;50.916;13.352;2023-04-24T06:33:03;8.93;;;8.30;;
19087;SDS011;9676;50.916;13.352;2023-04-24T06:36:07;9.00;;;8.40;;
19087;SDS011;9676;50.916;13.352;2023-04-24T06:38:56;9.40;;;8.70;;
19087;SDS011;9676;50.916;13.352;2023-04-24T06:41:46;9.87;;;9.00;;
19087;SDS011;9676;50.916;13.352;2023-04-24T06:44:39;9.13;;;8.33;;
19087;SDS011;9676;50.916;13.352;2023-04-24T06:47:29;8.90;;;8.30;;
19087;SDS011;9676;50.916;13.352;2023-04-24T06:50:19;9.03;;;8.43;;
19087;SDS011;9676;50.916;13.352;2023-04-24T06:53:09;9.20;;;8.50;;
19087;SDS011;9676;50.916;13.352;2023-04-24T06:56:00;8.87;;;8.23;;
19087;SDS011;9676;50.916;13.352;2023-04-24T06:58:49;8.90;;;8.20;;
19087;SDS011;9676;50.916;13.352;2023-04-24T07:01:39;9.20;;;8.50;;
19087;SDS011;9676;50.916;13.352;2023-04-24T07:04:28;8.77;;;8.17;;
19087;SDS011;9676;50.916;13.352;2023-04-24T07:07:19;9.30;;;8.50;;
19087;SDS011;9676;50.916;13.352;2023-04-24T07:10:12;8.90;;;8.20;;
19087;SDS011;9676;50.916;13.352;2023-04-24T07:13:01;9.00;;;8.30;;
19087;SDS011;9676;50.916;13.352;2023-04-24T07:15:51;8.90;;;8.20;;
19087;SDS011;9676;50.916;13.352;2023-04-24T07:18:42;9.00;;;8.20;;
19087;SDS011;9676;50.916;13.352;2023-04-24T07:21:31;9.30;;;8.40;;
19087;SDS011;9676;50.916;13.352;2023-04-24T07:24:22;9.00;;;8.30;;
19087;SDS011;9676;50.916;13.352;2023-04-24T07:27:13;9.00;;;8.30;;
19087;SDS011;9676;50.916;13.352;2023-04-24T07:30:02;8.83;;;8.13;;
19087;SDS011;9676;50.916;13.352;2023-04-24T07:32:54;9.00;;;8.30;;
19087;SDS011;9676;50.916;13.352;2023-04-24T07:35:43;9.17;;;8.37;;
19087;SDS011;9676;50.916;13.352;2023-04-24T07:38:33;9.00;;;8.30;;
19087;SDS011;9676;50.916;13.352;2023-04-24T07:41:24;9.23;;;8.43;;
19087;SDS011;9676;50.916;13.352;2023-04-24T07:44:15;9.00;;;8.30;;
19087;SDS011;9676;50.916;13.352;2023-04-24T07:47:04;9.10;;;8.30;;
19087;SDS011;9676;50.916;13.352;2023-04-24T07:49:54;9.10;;;8.40;;
19087;SDS011;9676;50.916;13.352;2023-04-24T07:52:43;9.20;;;8.40;;
19087;SDS011;9676;50.916;13.352;2023-04-24T07:55:33;9.30;;;8.50;;
19087;SDS011;9676;50.916;13.352;2023-04-24T07:58:23;8.97;;;8.27;;
19087;SDS011;9676;50.916;13.352;2023-04-24T08:01:13;9.07;;;8.30;;
19087;SDS011;9676;50.916;13.352;2023-04-24T08:04:02;9.10;;;8.40;;
19087;SDS011;9676;50.916;13.352;2023-04-24T08:06:52;9.20;;;8.40;;
19087;SDS011;9676;50.916;13.352;2023-04-24T08:09:42;9.10;;;8.30;;
19087;SDS011;9676;50.916;13.352;2023-04-24T08:12:31;9.30;;;8.60;;
19087;SDS011;9676;50.916;13.352;2023-04-24T08:15:22;9.13;;;8.43;;
19087;SDS011;9676;50.916;13.352;2023-04-24T08:18:12;9.17;;;8.37;;
19087;SDS011;9676;50.916;13.352;2023-04-24T08:21:03;9.00;;;8.30;;
19087;SDS011;9676;50.916;13.352;2023-04-24T08:23:52;8.90;;;8.30;;
19087;SDS011;9676;50.916;13.352;2023-04-24T08:26:42;9.40;;;8.50;;
19087;SDS011;9676;50.916;13.352;2023-04-24T08:29:31;9.00;;;8.30;;
19087;SDS011;9676;50.916;13.352;2023-04-24T08:32:22;9.33;;;8.50;;
19087;SDS011;9676;50.916;13.352;2023-04-24T08:35:11;9.37;;;8.40;;
19087;SDS011;9676;50.916;13.352;2023-04-24T08:38:00;9.10;;;8.40;;
19087;SDS011;9676;50.916;13.352;2023-04-24T08:40:50;8.60;;;8.00;;
19087;SDS011;9676;50.916;13.352;2023-04-24T08:43:39;8.90;;;8.17;;
19087;SDS011;9676;50.916;13.352;2023-04-24T08:46:30;9.13;;;8.33;;
19087;SDS011;9676;50.916;13.352;2023-04-24T08:49:21;9.00;;;8.30;;
19087;SDS011;9676;50.916;13.352;2023-04-24T08:52:14;9.27;;;8.50;;
19087;SDS011;9676;50.916;13.352;2023-04-24T08:55:05;8.87;;;8.17;;
19087;SDS011;9676;50.916;13.352;2023-04-24T08:57:55;9.10;;;8.30;;
19087;SDS011;9676;50.916;13.352;2023-04-24T09:00:44;8.83;;;8.20;;
19087;SDS011;9676;50.916;13.352;2023-04-24T09:03:35;9.07;;;8.37;;
19087;SDS011;9676;50.916;13.352;2023-04-24T09:06:27;8.80;;;8.10;;
19087;SDS011;9676;50.916;13.352;2023-04-24T09:09:17;8.97;;;8.27;;
19087;SDS011;9676;50.916;13.352;2023-04-24T09:12:07;8.80;;;8.10;;
19087;SDS011;9676;50.916;13.352;2023-04-24T09:14:57;9.03;;;8.33;;
19087;SDS011;9676;50.916;13.352;2023-04-24T09:17:47;9.30;;;8.40;;
19087;SDS011;9676;50.916;13.352;2023-04-24T09:23:58;8.83;;;8.13;;
19087;SDS011;9676;50.916;13.352;2023-04-24T09:26:55;9.00;;;8.30;;
19087;SDS011;9676;50.916;13.352;2023-04-24T09:29:54;8.80;;;8.17;;
19087;SDS011;9676;50.916;13.352;2023-04-24T09:32:44;8.70;;;8.00;;
19087;SDS011;9676;50.916;13.352;2023-04-24T09:35:34;8.90;;;8.20;;
19087;SDS011;9676;50.916;13.352;2023-04-24T09:38:30;9.20;;;8.40;;
19087;SDS011;9676;50.916;13.352;2023-04-24T09:41:22;9.03;;;8.30;;
19087;SDS011;9676;50.916;13.352;2023-04-24T09:44:12;8.90;;;8.10;;
19087;SDS011;9676;50.916;13.352;2023-04-24T09:47:03;9.10;;;8.30;;
19087;SDS011;9676;50.916;13.352;2023-04-24T09:49:58;8.70;;;8.00;;
19087;SDS011;9676;50.916;13.352;2023-04-24T09:52:56;9.00;;;8.30;;
19087;SDS011;9676;50.916;13.352;2023-04-24T09:55:47;8.97;;;8.27;;
19087;SDS011;9676;50.916;13.352;2023-04-24T09:58:39;9.03;;;8.33;;
19087;SDS011;9676;50.916;13.352;2023-04-24T10:01:31;8.93;;;8.23;;
19087;SDS011;9676;50.916;13.352;2023-04-24T10:04:22;8.80;;;8.00;;
19087;SDS011;9676;50.916;13.352;2023-04-24T10:07:13;8.70;;;8.00;;
19087;SDS011;9676;50.916;13.352;2023-04-24T10:10:04;9.20;;;8.40;;
19087;SDS011;9676;50.916;13.352;2023-04-24T10:12:55;8.70;;;8.00;;
19087;SDS011;9676;50.916;13.352;2023-04-24T10:15:45;8.80;;;8.10;;
19087;SDS011;9676;50.916;13.352;2023-04-24T10:18:37;8.80;;;8.10;;
19087;SDS011;9676;50.916;13.352;2023-04-24T10:21:28;9.00;;;8.30;;
19087;SDS011;9676;50.916;13.352;2023-04-24T10:24:18;8.50;;;7.90;;
19087;SDS011;9676;50.916;13.352;2023-04-24T10:27:10;8.90;;;8.20;;
19087;SDS011;9676;50.916;13.352;2023-04-24T10:30:00;8.93;;;8.23;;
19087;SDS011;9676;50.916;13.352;2023-04-24T10:32:52;9.30;;;8.50;;
19087;SDS011;9676;50.916;13.352;2023-04-24T10:35:44;8.80;;;8.10;;
19087;SDS011;9676;50.916;13.352;2023-04-24T10:38:36;8.90;;;8.20;;
19087;SDS011;9676;50.916;13.352;2023-04-24T10:41:28;8.50;;;7.90;;
19087;SDS011;9676;50.916;13.352;2023-04-24T10:44:19;9.10;;;8.40;;
19087;SDS011;9676;50.916;13.352;2023-04-24T10:47:12;8.60;;;8.00;;
19087;SDS011;9676;50.916;13.352;2023-04-24T10:50:04;8.80;;;8.20;;
19087;SDS011;9676;50.916;13.352;2023-04-24T10:53:05;8.93;;;8.23;;
19087;SDS011;9676;50.916;13.352;2023-04-24T10:55:57;8.60;;;8.00;;
19087;SDS011;9676;50.916;13.352;2023-04-24T10:58:49;8.73;;;8.03;;
19087;SDS011;9676;50.916;13.352;2023-04-24T11:01:41;8.80;;;8.10;;
19087;SDS011;9676;50.916;13.352;2023-04-24T11:04:42;8.70;;;8.00;;
19087;SDS011;9676;50.916;13.352;2023-04-24T11:11:03;8.80;;;8.10;;
19087;SDS011;9676;50.916;13.352;2023-04-24T11:14:01;8.77;;;8.07;;
19087;SDS011;9676;50.916;13.352;2023-04-24T11:16:54;8.60;;;7.90;;
19087;SDS011;9676;50.916;13.352;2023-04-24T11:19:43;8.63;;;7.83;;
19087;SDS011;9676;50.916;13.352;2023-04-24T11:22:42;8.60;;;7.90;;
19087;SDS011;9676;50.916;13.352;2023-04-24T11:25:33;8.70;;;8.00;;
19087;SDS011;9676;50.916;13.352;2023-04-24T11:28:24;8.80;;;8.10;;
19087;SDS011;9676;50.916;13.352;2023-04-24T11:34:26;11.30;;;8.33;;
19087;SDS011;9676;50.916;13.352;2023-04-24T11:37:15;8.87;;;8.17;;
19087;SDS011;9676;50.916;13.352;2023-04-24T11:40:06;9.20;;;8.30;;
19087;SDS011;9676;50.916;13.352;2023-04-24T11:42:59;8.97;;;8.27;;
19087;SDS011;9676;50.916;13.352;2023-04-24T11:45:49;9.07;;;8.30;;
19087;SDS011;9676;50.916;13.352;2023-04-24T11:48:38;8.90;;;8.20;;
19087;SDS011;9676;50.916;13.352;2023-04-24T11:51:34;10.93;;;9.87;;
19087;SDS011;9676;50.916;13.352;2023-04-24T11:54:46;11.03;;;9.93;;
19087;SDS011;9676;50.916;13.352;2023-04-24T11:57:37;9.83;;;8.93;;
19087;SDS011;9676;50.916;13.352;2023-04-24T12:00:28;9.60;;;8.80;;
19087;SDS011;9676;50.916;13.352;2023-04-24T12:03:21;8.90;;;8.10;;
19087;SDS011;9676;50.916;13.352;2023-04-24T12:06:10;9.40;;;8.60;;
19087;SDS011;9676;50.916;13.352;2023-04-24T12:09:01;9.00;;;8.20;;
19087;SDS011;9676;50.916;13.352;2023-04-24T12:12:01;8.97;;;8.20;;
19087;SDS011;9676;50.916;13.352;2023-04-24T12:14:52;9.10;;;8.30;;
19087;SDS011;9676;50.916;13.352;2023-04-24T12:17:46;8.93;;;8.23;;
19087;SDS011;9676;50.916;13.352;2023-04-24T12:20:36;9.23;;;8.43;;
19087;SDS011;9676;50.916;13.352;2023-04-24T12:23:34;9.17;;;8.37;;
19087;SDS011;9676;50.916;13.352;2023-04-24T12:26:24;9.20;;;8.43;;
19087;SDS011;9676;50.916;13.352;2023-04-24T12:29:19;9.03;;;8.33;;
19087;SDS011;9676;50.916;13.352;2023-04-24T12:32:15;9.00;;;8.30;;
19087;SDS011;9676;50.916;13.352;2023-04-24T12:35:06;9.37;;;8.57;;
19087;SDS011;9676;50.916;13.352;2023-04-24T12:38:04;9.20;;;8.50;;
19087;SDS011;9676;50.916;13.352;2023-04-24T12:41:01;9.60;;;8.70;;
19087;SDS011;9676;50.916;13.352;2023-04-24T12:43:52;9.00;;;8.30;;
19087;SDS011;9676;50.916;13.352;2023-04-24T12:46:43;9.00;;;8.30;;
19087;SDS011;9676;50.916;13.352;2023-04-24T12:49:32;9.27;;;8.47;;
19087;SDS011;9676;50.916;13.352;2023-04-24T12:52:23;10.10;;;9.20;;
19087;SDS011;9676;50.916;13.352;2023-04-24T12:55:13;9.83;;;8.90;;
19087;SDS011;9676;50.916;13.352;2023-04-24T12:58:03;9.40;;;8.60;;
19087;SDS011;9676;50.916;13.352;2023-04-24T13:00:52;9.40;;;8.60;;
19087;SDS011;9676;50.916;13.352;2023-04-24T13:03:42;9.30;;;8.50;;
19087;SDS011;9676;50.916;13.352;2023-04-24T13:06:32;9.27;;;8.50;;
19087;SDS011;9676;50.916;13.352;2023-04-24T13:09:23;9.47;;;8.57;;
19087;SDS011;9676;50.916;13.352;2023-04-24T13:12:13;9.50;;;8.60;;
19087;SDS011;9676;50.916;13.352;2023-04-24T13:15:03;9.90;;;8.60;;
19087;SDS011;9676;50.916;13.352;2023-04-24T13:17:53;9.10;;;8.40;;
19087;SDS011;9676;50.916;13.352;2023-04-24T13:20:42;9.47;;;8.70;;
19087;SDS011;9676;50.916;13.352;2023-04-24T13:23:34;9.53;;;8.73;;
19087;SDS011;9676;50.916;13.352;2023-04-24T13:26:25;9.20;;;8.40;;
19087;SDS011;9676;50.916;13.352;2023-04-24T13:29:14;9.33;;;8.53;;
19087;SDS011;9676;50.916;13.352;2023-04-24T13:32:03;9.63;;;8.73;;
19087;SDS011;9676;50.916;13.352;2023-04-24T13:34:53;9.33;;;8.53;;
19087;SDS011;9676;50.916;13.352;2023-04-24T13:37:42;9.07;;;8.37;;
19087;SDS011;9676;50.916;13.352;2023-04-24T13:40:32;9.33;;;8.43;;
19087;SDS011;9676;50.916;13.352;2023-04-24T13:43:23;9.10;;;8.40;;
19087;SDS011;9676;50.916;13.352;2023-04-24T13:46:13;9.20;;;8.40;;
19087;SDS011;9676;50.916;13.352;2023-04-24T13:49:02;9.23;;;8.50;;
19087;SDS011;9676;50.916;13.352;2023-04-24T13:51:52;9.20;;;8.50;;
19087;SDS011;9676;50.916;13.352;2023-04-24T13:54:42;9.23;;;8.50;;
19087;SDS011;9676;50.916;13.352;2023-04-24T13:57:31;9.10;;;8.30;;
19087;SDS011;9676;50.916;13.352;2023-04-24T14:00:22;11.10;;;8.63;;
19087;SDS011;9676;50.916;13.352;2023-04-24T14:03:11;9.60;;;8.60;;
19087;SDS011;9676;50.916;13.352;2023-04-24T14:06:01;9.20;;;8.40;;
19087;SDS011;9676;50.916;13.352;2023-04-24T14:08:50;9.30;;;8.50;;
19087;SDS011;9676;50.916;13.352;2023-04-24T14:11:40;9.10;;;8.40;;
19087;SDS011;9676;50.916;13.352;2023-04-24T14:14:30;9.63;;;8.83;;
19087;SDS011;9676;50.916;13.352;2023-04-24T14:17:20;9.43;;;8.63;;
19087;SDS011;9676;50.916;13.352;2023-04-24T14:20:11;9.63;;;8.83;;
19087;SDS011;9676;50.916;13.352;2023-04-24T14:23:01;9.70;;;8.90;;
19087;SDS011;9676;50.916;13.352;2023-04-24T14:25:51;9.53;;;8.73;;
19087;SDS011;9676;50.916;13.352;2023-04-24T14:28:40;9.57;;;8.73;;
19087;SDS011;9676;50.916;13.352;2023-04-24T14:31:30;9.80;;;8.80;;
19087;SDS011;9676;50.916;13.352;2023-04-24T14:34:20;9.77;;;8.97;;
19087;SDS011;9676;50.916;13.352;2023-04-24T14:37:10;9.47;;;8.60;;
19087;SDS011;9676;50.916;13.352;2023-04-24T14:39:59;9.10;;;8.40;;
19087;SDS011;9676;50.916;13.352;2023-04-24T14:43:07;9.10;;;8.40;;
19087;SDS011;9676;50.916;13.352;2023-04-24T14:45:56;9.63;;;8.87;;
19087;SDS011;9676;50.916;13.352;2023-04-24T14:48:46;9.00;;;8.30;;
19087;SDS011;9676;50.916;13.352;2023-04-24T14:51:36;9.60;;;8.70;;
19087;SDS011;9676;50.916;13.352;2023-04-24T14:54:26;9.10;;;8.40;;
19087;SDS011;9676;50.916;13.352;2023-04-24T14:57:15;9.40;;;8.60;;
19087;SDS011;9676;50.916;13.352;2023-04-24T15:00:05;9.13;;;8.43;;
19087;SDS011;9676;50.916;13.352;2023-04-24T15:02:57;9.40;;;8.60;;
19087;SDS011;9676;50.916;13.352;2023-04-24T15:05:47;9.40;;;8.60;;
19087;SDS011;9676;50.916;13.352;2023-04-24T15:08:38;9.37;;;8.57;;
19087;SDS011;9676;50.916;13.352;2023-04-24T15:11:27;9.43;;;8.63;;
19087;SDS011;9676;50.916;13.352;2023-04-24T15:14:17;9.30;;;8.60;;
19087;SDS011;9676;50.916;13.352;2023-04-24T15:17:06;9.20;;;8.43;;
19087;SDS011;9676;50.916;13.352;2023-04-24T15:19:56;9.20;;;8.40;;
19087;SDS011;9676;50.916;13.352;2023-04-24T15:22:45;9.30;;;8.60;;
19087;SDS011;9676;50.916;13.352;2023-04-24T15:25:36;9.30;;;8.60;;
19087;SDS011;9676;50.916;13.352;2023-04-24T15:28:26;9.20;;;8.50;;
19087;SDS011;9676;50.916;13.352;2023-04-24T15:31:15;10.03;;;9.13;;
19087;SDS011;9676;50.916;13.352;2023-04-24T15:34:04;9.63;;;8.83;;
19087;SDS011;9676;50.916;13.352;2023-04-24T15:36:54;9.63;;;8.83;;
19087;SDS011;9676;50.916;13.352;2023-04-24T15:39:43;9.63;;;8.73;;
19087;SDS011;9676;50.916;13.352;2023-04-24T15:42:35;13.73;;;8.77;;
19087;SDS011;9676;50.916;13.352;2023-04-24T15:45:24;9.60;;;8.80;;
19087;SDS011;9676;50.916;13.352;2023-04-24T15:48:13;9.70;;;8.90;;
19087;SDS011;9676;50.916;13.352;2023-04-24T15:51:03;13.73;;;9.33;;
19087;SDS011;9676;50.916;13.352;2023-04-24T15:53:52;9.90;;;9.00;;
19087;SDS011;9676;50.916;13.352;2023-04-24T15:56:41;9.60;;;8.80;;
19087;SDS011;9676;50.916;13.352;2023-04-24T15:59:33;9.50;;;8.80;;
19087;SDS011;9676;50.916;13.352;2023-04-24T16:02:23;9.30;;;8.60;;
19087;SDS011;9676;50.916;13.352;2023-04-24T16:05:13;9.43;;;8.63;;
19087;SDS011;9676;50.916;13.352;2023-04-24T16:08:02;9.60;;;8.70;;
19087;SDS011;9676;50.916;13.352;2023-04-24T16:10:52;9.30;;;8.60;;
19087;SDS011;9676;50.916;13.352;2023-04-24T16:13:41;9.50;;;8.70;;
19087;SDS011;9676;50.916;13.352;2023-04-24T16:16:32;9.30;;;8.60;;
19087;SDS011;9676;50.916;13.352;2023-04-24T16:19:21;9.33;;;8.50;;
19087;SDS011;9676;50.916;13.352;2023-04-24T16:22:11;9.20;;;8.40;;
19087;SDS011;9676;50.916;13.352;2023-04-24T16:25:00;9.20;;;8.50;;
19087;SDS011;9676;50.916;13.352;2023-04-24T16:27:50;9.17;;;8.47;;
19087;SDS011;9676;50.916;13.352;2023-04-24T16:30:40;9.90;;;9.10;;
19087;SDS011;9676;50.916;13.352;2023-04-24T16:33:30;9.43;;;8.73;;
19087;SDS011;9676;50.916;13.352;2023-04-24T16:36:20;9.53;;;8.80;;
19087;SDS011;9676;50.916;13.352;2023-04-24T16:39:10;9.70;;;8.90;;
19087;SDS011;9676;50.916;13.352;2023-04-24T16:42:00;9.70;;;8.90;;
19087;SDS011;9676;50.916;13.352;2023-04-24T16:44:50;10.13;;;9.13;;
19087;SDS011;9676;50.916;13.352;2023-04-24T16:47:39;9.93;;;9.10;;
19087;SDS011;9676;50.916;13.352;2023-04-24T16:50:30;10.83;;;9.80;;
19087;SDS011;9676;50.916;13.352;2023-04-24T16:53:19;9.70;;;8.90;;
19087;SDS011;9676;50.916;13.352;2023-04-24T16:56:09;12.60;;;11.30;;
19087;SDS011;9676;50.916;13.352;2023-04-24T16:58:58;10.90;;;9.90;;
19087;SDS011;9676;50.916;13.352;2023-04-24T17:01:48;10.47;;;9.47;;
19087;SDS011;9676;50.916;13.352;2023-04-24T17:04:37;10.17;;;9.27;;
19087;SDS011;9676;50.916;13.352;2023-04-24T17:07:28;10.00;;;9.10;;
19087;SDS011;9676;50.916;13.352;2023-04-24T17:10:18;9.97;;;9.17;;
19087;SDS011;9676;50.916;13.352;2023-04-24T17:13:07;9.77;;;8.97;;
19087;SDS011;9676;50.916;13.352;2023-04-24T17:15:57;9.77;;;8.90;;
19087;SDS011;9676;50.916;13.352;2023-04-24T17:18:47;9.20;;;8.50;;